sensor_id;sensor_type;location;lat;lon;timestamp;temperature;humidity
22666;DHT22;11499;49.486;11.104;2022-10-16T00:01:11;15.80;99.90
22666;DHT22;11499;49.486;11.104;2022-10-16T00:03:38;15.80;99.90
22666;DHT22;11499;49.486;11.104;2022-10-16T00:06:05;15.80;99.90
22666;DHT22;11499;49.486;11.104;2022-10-16T00:08:31;15.80;99.90
22666;DHT22;11499;49.486;11.104;2022-10-16T00:11:11;15.80;99.90
22666;DHT22;11499;49.486;11.104;2022-10-16T00:16:17;15.70;99.90
22666;DHT22;11499;49.486;11.104;2022-10-16T00:18:43;15.70;99.90
22666;DHT22;11499;49.486;11.104;2022-10-16T00:21:13;15.70;99.90
22666;DHT22;11499;49.486;11.104;2022-10-16T00:23:40;15.70;99.90
22666;DHT22;11499;49.486;11.104;2022-10-16T00:26:12;15.60;99.90
22666;DHT22;11499;49.486;11.104;2022-10-16T00:28:38;15.60;99.90
22666;DHT22;11499;49.486;11.104;2022-10-16T00:31:10;15.60;99.90
22666;DHT22;11499;49.486;11.104;2022-10-16T00:33:37;15.50;99.90
22666;DHT22;11499;49.486;11.104;2022-10-16T00:36:04;15.60;99.90
22666;DHT22;11499;49.486;11.104;2022-10-16T00:38:29;15.60;99.90
22666;DHT22;11499;49.486;11.104;2022-10-16T00:44:43;15.60;99.90
22666;DHT22;11499;49.486;11.104;2022-10-16T00:47:12;15.60;99.90
22666;DHT22;11499;49.486;11.104;2022-10-16T00:49:38;15.60;99.90
22666;DHT22;11499;49.486;11.104;2022-10-16T00:52:05;15.60;99.90
22666;DHT22;11499;49.486;11.104;2022-10-16T00:54:31;15.60;99.90
22666;DHT22;11499;49.486;11.104;2022-10-16T00:57:01;15.60;99.90
22666;DHT22;11499;49.486;11.104;2022-10-16T00:59:29;15.60;99.90
22666;DHT22;11499;49.486;11.104;2022-10-16T01:01:57;15.60;99.90
22666;DHT22;11499;49.486;11.104;2022-10-16T01:04:24;15.50;99.90
22666;DHT22;11499;49.486;11.104;2022-10-16T01:12:10;15.50;99.90
22666;DHT22;11499;49.486;11.104;2022-10-16T01:17:23;15.40;99.90
22666;DHT22;11499;49.486;11.104;2022-10-16T01:20:00;15.40;99.90
22666;DHT22;11499;49.486;11.104;2022-10-16T01:22:39;15.40;99.90
22666;DHT22;11499;49.486;11.104;2022-10-16T01:25:15;15.40;99.90
22666;DHT22;11499;49.486;11.104;2022-10-16T01:27:44;15.30;99.90
22666;DHT22;11499;49.486;11.104;2022-10-16T01:30:20;15.30;99.90
22666;DHT22;11499;49.486;11.104;2022-10-16T01:33:03;15.30;99.90
22666;DHT22;11499;49.486;11.104;2022-10-16T01:35:36;15.30;99.90
22666;DHT22;11499;49.486;11.104;2022-10-16T01:40:24;15.30;99.90
22666;DHT22;11499;49.486;11.104;2022-10-16T01:42:56;15.30;99.90
22666;DHT22;11499;49.486;11.104;2022-10-16T01:45:24;15.30;99.90
22666;DHT22;11499;49.486;11.104;2022-10-16T01:47:51;15.20;99.90
22666;DHT22;11499;49.486;11.104;2022-10-16T01:50:19;15.20;99.90
22666;DHT22;11499;49.486;11.104;2022-10-16T01:52:48;15.20;99.90
22666;DHT22;11499;49.486;11.104;2022-10-16T01:55:19;15.20;99.90
22666;DHT22;11499;49.486;11.104;2022-10-16T01:57:48;15.30;99.90
22666;DHT22;11499;49.486;11.104;2022-10-16T02:00:16;15.30;99.90
22666;DHT22;11499;49.486;11.104;2022-10-16T02:02:45;15.30;99.90
22666;DHT22;11499;49.486;11.104;2022-10-16T02:07:53;15.40;99.90
22666;DHT22;11499;49.486;11.104;2022-10-16T02:10:18;15.40;99.90
22666;DHT22;11499;49.486;11.104;2022-10-16T02:12:49;15.40;99.90
22666;DHT22;11499;49.486;11.104;2022-10-16T02:15:15;15.50;99.90
22666;DHT22;11499;49.486;11.104;2022-10-16T02:17:41;15.40;99.90
22666;DHT22;11499;49.486;11.104;2022-10-16T02:20:07;15.50;99.90
22666;DHT22;11499;49.486;11.104;2022-10-16T02:22:36;15.50;99.90
22666;DHT22;11499;49.486;11.104;2022-10-16T02:27:45;15.50;99.90
22666;DHT22;11499;49.486;11.104;2022-10-16T02:30:29;15.50;99.90
22666;DHT22;11499;49.486;11.104;2022-10-16T02:36:06;15.50;99.90
22666;DHT22;11499;49.486;11.104;2022-10-16T02:38:32;15.50;99.90
22666;DHT22;11499;49.486;11.104;2022-10-16T02:40:59;15.50;99.90
22666;DHT22;11499;49.486;11.104;2022-10-16T02:43:25;15.50;99.90
22666;DHT22;11499;49.486;11.104;2022-10-16T02:45:51;15.50;99.90
22666;DHT22;11499;49.486;11.104;2022-10-16T02:48:16;15.40;99.90
22666;DHT22;11499;49.486;11.104;2022-10-16T02:50:42;15.50;99.90
22666;DHT22;11499;49.486;11.104;2022-10-16T02:53:07;15.50;99.90
22666;DHT22;11499;49.486;11.104;2022-10-16T02:55:33;15.50;99.90
22666;DHT22;11499;49.486;11.104;2022-10-16T02:57:58;15.50;99.90
22666;DHT22;11499;49.486;11.104;2022-10-16T03:03:12;15.50;99.90
22666;DHT22;11499;49.486;11.104;2022-10-16T03:05:37;15.40;99.90
22666;DHT22;11499;49.486;11.104;2022-10-16T03:08:03;15.40;99.90
22666;DHT22;11499;49.486;11.104;2022-10-16T03:10:28;15.40;99.90
22666;DHT22;11499;49.486;11.104;2022-10-16T03:12:54;15.40;99.90
22666;DHT22;11499;49.486;11.104;2022-10-16T03:15:19;15.30;99.90
22666;DHT22;11499;49.486;11.104;2022-10-16T03:17:45;15.30;99.90
22666;DHT22;11499;49.486;11.104;2022-10-16T03:20:11;15.30;99.90
22666;DHT22;11499;49.486;11.104;2022-10-16T03:22:36;15.30;99.90
22666;DHT22;11499;49.486;11.104;2022-10-16T03:25:02;15.30;99.90
22666;DHT22;11499;49.486;11.104;2022-10-16T03:30:43;15.20;99.90
22666;DHT22;11499;49.486;11.104;2022-10-16T03:33:09;15.10;99.90
22666;DHT22;11499;49.486;11.104;2022-10-16T03:35:34;15.10;99.90
22666;DHT22;11499;49.486;11.104;2022-10-16T03:38:00;15.10;99.90
22666;DHT22;11499;49.486;11.104;2022-10-16T03:40:26;15.10;99.90
22666;DHT22;11499;49.486;11.104;2022-10-16T03:42:51;15.10;99.90
22666;DHT22;11499;49.486;11.104;2022-10-16T03:45:17;15.10;99.90
22666;DHT22;11499;49.486;11.104;2022-10-16T03:47:42;15.00;99.90
22666;DHT22;11499;49.486;11.104;2022-10-16T03:50:08;15.00;99.90
22666;DHT22;11499;49.486;11.104;2022-10-16T03:52:34;15.00;99.90
22666;DHT22;11499;49.486;11.104;2022-10-16T03:57:40;15.00;99.90
22666;DHT22;11499;49.486;11.104;2022-10-16T04:00:06;15.00;99.90
22666;DHT22;11499;49.486;11.104;2022-10-16T04:02:31;15.00;99.90
22666;DHT22;11499;49.486;11.104;2022-10-16T04:04:57;15.00;99.90
22666;DHT22;11499;49.486;11.104;2022-10-16T04:07:22;15.00;99.90
22666;DHT22;11499;49.486;11.104;2022-10-16T04:09:48;15.00;99.90
22666;DHT22;11499;49.486;11.104;2022-10-16T04:12:13;15.00;99.90
22666;DHT22;11499;49.486;11.104;2022-10-16T04:14:39;15.00;99.90
22666;DHT22;11499;49.486;11.104;2022-10-16T04:17:04;15.00;99.90
22666;DHT22;11499;49.486;11.104;2022-10-16T04:19:30;15.00;99.90
22666;DHT22;11499;49.486;11.104;2022-10-16T04:25:04;15.00;99.90
22666;DHT22;11499;49.486;11.104;2022-10-16T04:27:30;15.10;99.90
22666;DHT22;11499;49.486;11.104;2022-10-16T04:29:59;15.00;99.90
22666;DHT22;11499;49.486;11.104;2022-10-16T04:32:25;15.00;99.90
22666;DHT22;11499;49.486;11.104;2022-10-16T04:34:50;15.00;99.90
22666;DHT22;11499;49.486;11.104;2022-10-16T04:37:16;15.00;99.90
22666;DHT22;11499;49.486;11.104;2022-10-16T04:39:41;15.00;99.90
22666;DHT22;11499;49.486;11.104;2022-10-16T04:42:07;15.00;99.90
22666;DHT22;11499;49.486;11.104;2022-10-16T04:44:32;15.00;99.90
22666;DHT22;11499;49.486;11.104;2022-10-16T04:46:58;15.00;99.90
22666;DHT22;11499;49.486;11.104;2022-10-16T04:49:23;15.00;99.90
22666;DHT22;11499;49.486;11.104;2022-10-16T04:54:37;14.90;99.90
22666;DHT22;11499;49.486;11.104;2022-10-16T04:57:03;15.00;99.90
22666;DHT22;11499;49.486;11.104;2022-10-16T04:59:30;15.00;99.90
22666;DHT22;11499;49.486;11.104;2022-10-16T05:01:55;15.00;99.90
22666;DHT22;11499;49.486;11.104;2022-10-16T05:04:21;15.00;99.90
22666;DHT22;11499;49.486;11.104;2022-10-16T05:06:47;15.00;99.90
22666;DHT22;11499;49.486;11.104;2022-10-16T05:09:13;15.00;99.90
22666;DHT22;11499;49.486;11.104;2022-10-16T05:11:39;15.00;99.90
22666;DHT22;11499;49.486;11.104;2022-10-16T05:14:04;15.00;99.90
22666;DHT22;11499;49.486;11.104;2022-10-16T05:16:30;14.90;99.90
22666;DHT22;11499;49.486;11.104;2022-10-16T05:20:22;14.90;99.90
22666;DHT22;11499;49.486;11.104;2022-10-16T05:22:48;14.90;99.90
22666;DHT22;11499;49.486;11.104;2022-10-16T05:25:13;14.80;99.90
22666;DHT22;11499;49.486;11.104;2022-10-16T05:27:39;14.80;99.90
22666;DHT22;11499;49.486;11.104;2022-10-16T05:30:05;14.80;99.90
22666;DHT22;11499;49.486;11.104;2022-10-16T05:32:31;14.80;99.90
22666;DHT22;11499;49.486;11.104;2022-10-16T05:34:56;14.70;99.90
22666;DHT22;11499;49.486;11.104;2022-10-16T05:37:21;14.70;99.90
22666;DHT22;11499;49.486;11.104;2022-10-16T05:39:47;14.60;99.90
22666;DHT22;11499;49.486;11.104;2022-10-16T05:42:12;14.60;99.90
22666;DHT22;11499;49.486;11.104;2022-10-16T05:47:47;14.60;99.90
22666;DHT22;11499;49.486;11.104;2022-10-16T05:50:13;14.70;99.90
22666;DHT22;11499;49.486;11.104;2022-10-16T05:52:38;14.70;99.90
22666;DHT22;11499;49.486;11.104;2022-10-16T05:55:04;14.80;99.90
22666;DHT22;11499;49.486;11.104;2022-10-16T05:57:30;14.80;99.90
22666;DHT22;11499;49.486;11.104;2022-10-16T05:59:55;14.80;99.90
22666;DHT22;11499;49.486;11.104;2022-10-16T06:02:21;14.90;99.90
22666;DHT22;11499;49.486;11.104;2022-10-16T06:04:46;14.90;99.90
22666;DHT22;11499;49.486;11.104;2022-10-16T06:07:12;15.00;99.90
22666;DHT22;11499;49.486;11.104;2022-10-16T06:09:37;15.00;99.90
22666;DHT22;11499;49.486;11.104;2022-10-16T06:14:46;15.20;99.90
22666;DHT22;11499;49.486;11.104;2022-10-16T06:17:15;15.20;99.90
22666;DHT22;11499;49.486;11.104;2022-10-16T06:19:41;15.30;99.90
22666;DHT22;11499;49.486;11.104;2022-10-16T06:22:06;15.40;99.90
22666;DHT22;11499;49.486;11.104;2022-10-16T06:24:32;15.40;99.90
22666;DHT22;11499;49.486;11.104;2022-10-16T06:26:57;15.50;99.90
22666;DHT22;11499;49.486;11.104;2022-10-16T06:29:23;15.60;99.90
22666;DHT22;11499;49.486;11.104;2022-10-16T06:31:48;15.60;99.90
22666;DHT22;11499;49.486;11.104;2022-10-16T06:34:14;15.70;99.90
22666;DHT22;11499;49.486;11.104;2022-10-16T06:36:39;15.70;99.90
22666;DHT22;11499;49.486;11.104;2022-10-16T06:41:43;15.80;99.90
22666;DHT22;11499;49.486;11.104;2022-10-16T06:44:08;16.00;99.90
22666;DHT22;11499;49.486;11.104;2022-10-16T06:46:34;16.10;99.90
22666;DHT22;11499;49.486;11.104;2022-10-16T06:48:59;16.30;99.90
22666;DHT22;11499;49.486;11.104;2022-10-16T06:51:25;16.40;99.90
22666;DHT22;11499;49.486;11.104;2022-10-16T06:53:55;16.40;99.90
22666;DHT22;11499;49.486;11.104;2022-10-16T06:56:24;16.40;99.90
22666;DHT22;11499;49.486;11.104;2022-10-16T06:58:50;16.40;99.90
22666;DHT22;11499;49.486;11.104;2022-10-16T07:01:18;16.40;99.90
22666;DHT22;11499;49.486;11.104;2022-10-16T07:03:44;16.30;99.90
22666;DHT22;11499;49.486;11.104;2022-10-16T07:08:49;16.20;99.90
22666;DHT22;11499;49.486;11.104;2022-10-16T07:11:17;16.20;99.90
22666;DHT22;11499;49.486;11.104;2022-10-16T07:13:43;16.30;99.90
22666;DHT22;11499;49.486;11.104;2022-10-16T07:18:35;16.40;99.90
22666;DHT22;11499;49.486;11.104;2022-10-16T07:21:10;16.40;99.90
22666;DHT22;11499;49.486;11.104;2022-10-16T07:23:36;16.50;99.90
22666;DHT22;11499;49.486;11.104;2022-10-16T07:26:02;16.50;99.90
22666;DHT22;11499;49.486;11.104;2022-10-16T07:28:28;16.60;99.90
22666;DHT22;11499;49.486;11.104;2022-10-16T07:30:55;16.70;99.90
22666;DHT22;11499;49.486;11.104;2022-10-16T07:36:09;16.70;99.90
22666;DHT22;11499;49.486;11.104;2022-10-16T07:38:35;16.60;99.90
22666;DHT22;11499;49.486;11.104;2022-10-16T07:41:03;16.70;99.90
22666;DHT22;11499;49.486;11.104;2022-10-16T07:43:30;16.70;99.90
22666;DHT22;11499;49.486;11.104;2022-10-16T07:45:56;16.70;99.90
22666;DHT22;11499;49.486;11.104;2022-10-16T07:48:22;16.70;99.90
22666;DHT22;11499;49.486;11.104;2022-10-16T07:50:48;16.90;99.90
22666;DHT22;11499;49.486;11.104;2022-10-16T07:53:14;17.00;99.90
22666;DHT22;11499;49.486;11.104;2022-10-16T07:55:40;17.10;99.90
22666;DHT22;11499;49.486;11.104;2022-10-16T07:58:06;17.20;99.90
22666;DHT22;11499;49.486;11.104;2022-10-16T08:02:07;17.40;99.90
22666;DHT22;11499;49.486;11.104;2022-10-16T08:04:32;17.50;99.90
22666;DHT22;11499;49.486;11.104;2022-10-16T08:06:58;17.70;99.90
22666;DHT22;11499;49.486;11.104;2022-10-16T08:09:23;17.70;99.90
22666;DHT22;11499;49.486;11.104;2022-10-16T08:11:49;17.70;99.90
22666;DHT22;11499;49.486;11.104;2022-10-16T08:14:15;17.80;99.90
22666;DHT22;11499;49.486;11.104;2022-10-16T08:16:40;17.80;99.90
22666;DHT22;11499;49.486;11.104;2022-10-16T08:19:06;17.90;99.90
22666;DHT22;11499;49.486;11.104;2022-10-16T08:21:31;17.90;99.90
22666;DHT22;11499;49.486;11.104;2022-10-16T08:23:57;17.90;99.90
22666;DHT22;11499;49.486;11.104;2022-10-16T08:26:22;17.80;99.90
22666;DHT22;11499;49.486;11.104;2022-10-16T08:28:50;18.00;99.90
22666;DHT22;11499;49.486;11.104;2022-10-16T08:34:05;18.10;99.90
22666;DHT22;11499;49.486;11.104;2022-10-16T08:36:30;18.50;99.90
22666;DHT22;11499;49.486;11.104;2022-10-16T08:38:56;18.60;99.90
22666;DHT22;11499;49.486;11.104;2022-10-16T08:50:08;19.20;99.90
22666;DHT22;11499;49.486;11.104;2022-10-16T08:52:38;19.40;99.90
22666;DHT22;11499;49.486;11.104;2022-10-16T08:55:05;19.50;99.90
22666;DHT22;11499;49.486;11.104;2022-10-16T08:57:30;19.50;99.90
22666;DHT22;11499;49.486;11.104;2022-10-16T09:01:58;19.60;99.90
22666;DHT22;11499;49.486;11.104;2022-10-16T09:07:54;19.70;99.90
22666;DHT22;11499;49.486;11.104;2022-10-16T09:13:58;20.00;99.90
22666;DHT22;11499;49.486;11.104;2022-10-16T09:16:33;20.20;99.90
22666;DHT22;11499;49.486;11.104;2022-10-16T09:19:13;20.50;99.90
22666;DHT22;11499;49.486;11.104;2022-10-16T09:21:45;20.60;99.90
22666;DHT22;11499;49.486;11.104;2022-10-16T09:24:16;20.80;99.90
22666;DHT22;11499;49.486;11.104;2022-10-16T09:29:06;21.10;99.90
22666;DHT22;11499;49.486;11.104;2022-10-16T09:31:32;20.80;99.90
22666;DHT22;11499;49.486;11.104;2022-10-16T09:34:03;20.80;99.90
22666;DHT22;11499;49.486;11.104;2022-10-16T09:36:36;20.80;99.90
22666;DHT22;11499;49.486;11.104;2022-10-16T09:39:09;20.30;99.90
22666;DHT22;11499;49.486;11.104;2022-10-16T09:41:37;20.30;99.90
22666;DHT22;11499;49.486;11.104;2022-10-16T09:44:13;20.40;99.90
22666;DHT22;11499;49.486;11.104;2022-10-16T09:46:42;20.20;99.90
22666;DHT22;11499;49.486;11.104;2022-10-16T09:49:25;20.10;99.90
22666;DHT22;11499;49.486;11.104;2022-10-16T09:54:34;19.90;99.90
22666;DHT22;11499;49.486;11.104;2022-10-16T09:57:07;19.90;99.90
22666;DHT22;11499;49.486;11.104;2022-10-16T09:59:33;19.90;99.90
22666;DHT22;11499;49.486;11.104;2022-10-16T10:02:04;20.00;99.90
22666;DHT22;11499;49.486;11.104;2022-10-16T10:04:42;20.00;99.90
22666;DHT22;11499;49.486;11.104;2022-10-16T10:07:18;20.00;99.90
22666;DHT22;11499;49.486;11.104;2022-10-16T10:09:45;19.70;99.90
22666;DHT22;11499;49.486;11.104;2022-10-16T10:12:19;19.80;99.90
22666;DHT22;11499;49.486;11.104;2022-10-16T10:14:51;19.80;99.90
22666;DHT22;11499;49.486;11.104;2022-10-16T10:17:22;20.20;99.90
22666;DHT22;11499;49.486;11.104;2022-10-16T10:21:56;20.50;99.90
22666;DHT22;11499;49.486;11.104;2022-10-16T10:24:22;21.40;99.90
22666;DHT22;11499;49.486;11.104;2022-10-16T10:26:57;21.40;99.90
22666;DHT22;11499;49.486;11.104;2022-10-16T10:29:31;21.60;99.90
22666;DHT22;11499;49.486;11.104;2022-10-16T10:32:29;21.80;99.90
22666;DHT22;11499;49.486;11.104;2022-10-16T10:35:16;21.60;99.90
22666;DHT22;11499;49.486;11.104;2022-10-16T10:38:06;21.50;99.90
22666;DHT22;11499;49.486;11.104;2022-10-16T10:49:29;22.10;99.90
22666;DHT22;11499;49.486;11.104;2022-10-16T10:55:33;22.40;99.90
22666;DHT22;11499;49.486;11.104;2022-10-16T10:58:29;22.40;99.90
22666;DHT22;11499;49.486;11.104;2022-10-16T11:01:16;22.40;99.90
22666;DHT22;11499;49.486;11.104;2022-10-16T11:03:55;22.90;99.90
22666;DHT22;11499;49.486;11.104;2022-10-16T11:06:24;23.00;99.90
22666;DHT22;11499;49.486;11.104;2022-10-16T11:09:11;22.90;99.90
22666;DHT22;11499;49.486;11.104;2022-10-16T11:11:43;23.00;99.90
22666;DHT22;11499;49.486;11.104;2022-10-16T11:15:58;23.00;99.90
22666;DHT22;11499;49.486;11.104;2022-10-16T11:21:31;22.90;99.90
22666;DHT22;11499;49.486;11.104;2022-10-16T11:24:22;23.00;99.90
22666;DHT22;11499;49.486;11.104;2022-10-16T11:26:49;22.90;99.90
22666;DHT22;11499;49.486;11.104;2022-10-16T11:29:22;23.30;99.90
22666;DHT22;11499;49.486;11.104;2022-10-16T11:31:53;23.60;99.90
22666;DHT22;11499;49.486;11.104;2022-10-16T11:34:38;23.40;99.90
22666;DHT22;11499;49.486;11.104;2022-10-16T11:37:31;23.50;99.90
22666;DHT22;11499;49.486;11.104;2022-10-16T11:47:42;23.00;99.90
22666;DHT22;11499;49.486;11.104;2022-10-16T11:50:25;23.30;99.90
22666;DHT22;11499;49.486;11.104;2022-10-16T11:53:13;23.40;99.90
22666;DHT22;11499;49.486;11.104;2022-10-16T11:55:43;23.50;99.90
22666;DHT22;11499;49.486;11.104;2022-10-16T12:10:24;23.20;99.90
22666;DHT22;11499;49.486;11.104;2022-10-16T12:12:50;23.10;99.90
22666;DHT22;11499;49.486;11.104;2022-10-16T12:15:20;23.10;99.90
22666;DHT22;11499;49.486;11.104;2022-10-16T12:17:46;23.00;99.90
22666;DHT22;11499;49.486;11.104;2022-10-16T12:22:48;23.30;99.90
22666;DHT22;11499;49.486;11.104;2022-10-16T12:25:21;23.10;99.90
22666;DHT22;11499;49.486;11.104;2022-10-16T12:27:54;23.10;99.90
22666;DHT22;11499;49.486;11.104;2022-10-16T12:30:22;23.00;99.90
22666;DHT22;11499;49.486;11.104;2022-10-16T12:35:48;23.10;99.90
22666;DHT22;11499;49.486;11.104;2022-10-16T12:38:25;23.00;99.90
22666;DHT22;11499;49.486;11.104;2022-10-16T12:41:07;22.90;99.90
22666;DHT22;11499;49.486;11.104;2022-10-16T12:43:45;22.80;99.90
22666;DHT22;11499;49.486;11.104;2022-10-16T12:48:42;22.40;99.90
22666;DHT22;11499;49.486;11.104;2022-10-16T13:04:47;22.30;99.90
22666;DHT22;11499;49.486;11.104;2022-10-16T13:07:36;22.10;99.90
22666;DHT22;11499;49.486;11.104;2022-10-16T13:10:12;22.00;99.90
22666;DHT22;11499;49.486;11.104;2022-10-16T13:12:45;22.00;99.90
22666;DHT22;11499;49.486;11.104;2022-10-16T13:15:26;22.40;99.90
22666;DHT22;11499;49.486;11.104;2022-10-16T13:21:00;22.70;99.90
22666;DHT22;11499;49.486;11.104;2022-10-16T13:26:17;23.00;99.90
22666;DHT22;11499;49.486;11.104;2022-10-16T13:28:46;23.70;99.90
22666;DHT22;11499;49.486;11.104;2022-10-16T13:31:19;23.80;99.90
22666;DHT22;11499;49.486;11.104;2022-10-16T13:33:47;23.80;99.90
22666;DHT22;11499;49.486;11.104;2022-10-16T13:36:21;23.70;99.90
22666;DHT22;11499;49.486;11.104;2022-10-16T13:38:47;23.60;99.90
22666;DHT22;11499;49.486;11.104;2022-10-16T13:41:17;23.40;99.90
22666;DHT22;11499;49.486;11.104;2022-10-16T13:43:49;23.20;99.90
22666;DHT22;11499;49.486;11.104;2022-10-16T13:46:20;23.00;99.90
22666;DHT22;11499;49.486;11.104;2022-10-16T13:49:14;22.70;99.90
22666;DHT22;11499;49.486;11.104;2022-10-16T13:53:50;22.80;99.90
22666;DHT22;11499;49.486;11.104;2022-10-16T13:56:18;23.00;99.90
22666;DHT22;11499;49.486;11.104;2022-10-16T13:58:45;23.10;99.90
22666;DHT22;11499;49.486;11.104;2022-10-16T14:01:20;23.10;99.90
22666;DHT22;11499;49.486;11.104;2022-10-16T14:03:48;23.10;99.90
22666;DHT22;11499;49.486;11.104;2022-10-16T14:06:17;23.10;99.90
22666;DHT22;11499;49.486;11.104;2022-10-16T14:08:46;23.00;99.90
22666;DHT22;11499;49.486;11.104;2022-10-16T14:11:20;22.90;99.90
22666;DHT22;11499;49.486;11.104;2022-10-16T14:13:47;22.90;99.90
22666;DHT22;11499;49.486;11.104;2022-10-16T14:16:18;22.90;99.90
22666;DHT22;11499;49.486;11.104;2022-10-16T14:20:33;22.80;99.90
22666;DHT22;11499;49.486;11.104;2022-10-16T14:23:16;22.70;99.90
22666;DHT22;11499;49.486;11.104;2022-10-16T14:25:44;22.60;99.90
22666;DHT22;11499;49.486;11.104;2022-10-16T14:30:53;22.60;99.90
22666;DHT22;11499;49.486;11.104;2022-10-16T14:33:23;22.50;99.90
22666;DHT22;11499;49.486;11.104;2022-10-16T14:36:01;22.40;99.90
22666;DHT22;11499;49.486;11.104;2022-10-16T14:38:27;22.30;99.90
22666;DHT22;11499;49.486;11.104;2022-10-16T14:40:54;22.10;99.90
22666;DHT22;11499;49.486;11.104;2022-10-16T14:45:59;21.90;99.90
22666;DHT22;11499;49.486;11.104;2022-10-16T14:48:25;21.60;99.90
22666;DHT22;11499;49.486;11.104;2022-10-16T14:50:51;21.50;99.90
22666;DHT22;11499;49.486;11.104;2022-10-16T14:53:16;21.50;99.90
22666;DHT22;11499;49.486;11.104;2022-10-16T14:55:42;21.50;99.90
22666;DHT22;11499;49.486;11.104;2022-10-16T14:58:17;21.50;99.90
22666;DHT22;11499;49.486;11.104;2022-10-16T15:00:44;21.50;99.90
22666;DHT22;11499;49.486;11.104;2022-10-16T15:03:10;21.50;99.90
22666;DHT22;11499;49.486;11.104;2022-10-16T15:05:36;21.50;99.90
22666;DHT22;11499;49.486;11.104;2022-10-16T15:08:02;21.50;99.90
22666;DHT22;11499;49.486;11.104;2022-10-16T15:13:14;21.60;99.90
22666;DHT22;11499;49.486;11.104;2022-10-16T15:15:47;21.50;99.90
22666;DHT22;11499;49.486;11.104;2022-10-16T15:18:14;21.60;99.90
22666;DHT22;11499;49.486;11.104;2022-10-16T15:20:45;21.50;99.90
22666;DHT22;11499;49.486;11.104;2022-10-16T15:23:17;21.50;99.90
22666;DHT22;11499;49.486;11.104;2022-10-16T15:25:47;21.40;99.90
22666;DHT22;11499;49.486;11.104;2022-10-16T15:28:14;21.30;99.90
22666;DHT22;11499;49.486;11.104;2022-10-16T15:30:41;21.10;99.90
22666;DHT22;11499;49.486;11.104;2022-10-16T15:33:15;21.10;99.90
22666;DHT22;11499;49.486;11.104;2022-10-16T15:35:42;21.00;99.90
22666;DHT22;11499;49.486;11.104;2022-10-16T15:40:47;20.90;99.90
22666;DHT22;11499;49.486;11.104;2022-10-16T15:43:13;20.80;99.90
22666;DHT22;11499;49.486;11.104;2022-10-16T15:45:38;20.70;99.90
22666;DHT22;11499;49.486;11.104;2022-10-16T15:48:04;20.60;99.90
22666;DHT22;11499;49.486;11.104;2022-10-16T15:50:31;20.50;99.90
22666;DHT22;11499;49.486;11.104;2022-10-16T15:52:57;20.30;99.90
22666;DHT22;11499;49.486;11.104;2022-10-16T15:55:22;20.20;99.90
22666;DHT22;11499;49.486;11.104;2022-10-16T15:57:48;20.00;99.90
22666;DHT22;11499;49.486;11.104;2022-10-16T16:00:16;19.90;99.90
22666;DHT22;11499;49.486;11.104;2022-10-16T16:02:43;19.80;99.90
22666;DHT22;11499;49.486;11.104;2022-10-16T16:08:09;19.70;99.90
22666;DHT22;11499;49.486;11.104;2022-10-16T16:10:34;19.60;99.90
22666;DHT22;11499;49.486;11.104;2022-10-16T16:13:00;19.50;99.90
22666;DHT22;11499;49.486;11.104;2022-10-16T16:15:25;19.40;99.90
22666;DHT22;11499;49.486;11.104;2022-10-16T16:17:51;19.40;99.90
22666;DHT22;11499;49.486;11.104;2022-10-16T16:20:16;19.40;99.90
22666;DHT22;11499;49.486;11.104;2022-10-16T16:22:42;19.30;99.90
22666;DHT22;11499;49.486;11.104;2022-10-16T16:25:08;19.30;99.90
22666;DHT22;11499;49.486;11.104;2022-10-16T16:27:33;19.20;99.90
22666;DHT22;11499;49.486;11.104;2022-10-16T16:30:00;19.20;99.90
22666;DHT22;11499;49.486;11.104;2022-10-16T16:35:08;19.10;99.90
22666;DHT22;11499;49.486;11.104;2022-10-16T16:37:33;19.10;99.90
22666;DHT22;11499;49.486;11.104;2022-10-16T16:39:59;19.00;99.90
22666;DHT22;11499;49.486;11.104;2022-10-16T16:42:28;18.90;99.90
22666;DHT22;11499;49.486;11.104;2022-10-16T16:44:53;18.80;99.90
22666;DHT22;11499;49.486;11.104;2022-10-16T16:47:19;18.80;99.90
22666;DHT22;11499;49.486;11.104;2022-10-16T16:49:44;18.70;99.90
22666;DHT22;11499;49.486;11.104;2022-10-16T16:52:12;18.70;99.90
22666;DHT22;11499;49.486;11.104;2022-10-16T16:54:38;18.60;99.90
22666;DHT22;11499;49.486;11.104;2022-10-16T16:57:04;18.60;99.90
22666;DHT22;11499;49.486;11.104;2022-10-16T17:02:11;18.60;99.90
22666;DHT22;11499;49.486;11.104;2022-10-16T17:04:36;18.50;99.90
22666;DHT22;11499;49.486;11.104;2022-10-16T17:07:02;18.50;99.90
22666;DHT22;11499;49.486;11.104;2022-10-16T17:09:28;18.50;99.90
22666;DHT22;11499;49.486;11.104;2022-10-16T17:11:53;18.40;99.90
22666;DHT22;11499;49.486;11.104;2022-10-16T17:14:19;18.30;99.90
22666;DHT22;11499;49.486;11.104;2022-10-16T17:16:45;18.30;99.90
22666;DHT22;11499;49.486;11.104;2022-10-16T17:19:14;18.30;99.90
22666;DHT22;11499;49.486;11.104;2022-10-16T17:21:41;18.30;99.90
22666;DHT22;11499;49.486;11.104;2022-10-16T17:27:38;18.30;99.90
22666;DHT22;11499;49.486;11.104;2022-10-16T17:30:04;18.30;99.90
22666;DHT22;11499;49.486;11.104;2022-10-16T17:32:30;18.30;99.90
22666;DHT22;11499;49.486;11.104;2022-10-16T17:34:56;18.30;99.90
22666;DHT22;11499;49.486;11.104;2022-10-16T17:37:21;18.20;99.90
22666;DHT22;11499;49.486;11.104;2022-10-16T17:39:49;18.20;99.90
22666;DHT22;11499;49.486;11.104;2022-10-16T17:42:15;18.20;99.90
22666;DHT22;11499;49.486;11.104;2022-10-16T17:44:41;18.20;99.90
22666;DHT22;11499;49.486;11.104;2022-10-16T17:47:06;18.20;99.90
22666;DHT22;11499;49.486;11.104;2022-10-16T17:52:14;18.10;99.90
22666;DHT22;11499;49.486;11.104;2022-10-16T17:54:39;18.10;99.90
22666;DHT22;11499;49.486;11.104;2022-10-16T17:57:05;18.00;99.90
22666;DHT22;11499;49.486;11.104;2022-10-16T17:59:30;18.00;99.90
22666;DHT22;11499;49.486;11.104;2022-10-16T18:01:56;18.00;99.90
22666;DHT22;11499;49.486;11.104;2022-10-16T18:04:22;17.90;99.90
22666;DHT22;11499;49.486;11.104;2022-10-16T18:06:47;17.90;99.90
22666;DHT22;11499;49.486;11.104;2022-10-16T18:09:15;17.90;99.90
22666;DHT22;11499;49.486;11.104;2022-10-16T18:11:42;17.90;99.90
22666;DHT22;11499;49.486;11.104;2022-10-16T18:14:10;17.90;99.90
22666;DHT22;11499;49.486;11.104;2022-10-16T18:18:21;17.90;99.90
22666;DHT22;11499;49.486;11.104;2022-10-16T18:20:57;17.80;99.90
22666;DHT22;11499;49.486;11.104;2022-10-16T18:23:23;17.80;99.90
22666;DHT22;11499;49.486;11.104;2022-10-16T18:25:50;17.70;99.90